2018-10-16 - 01:46:00

SR: 0556 - SS: 1634

RWY: 25


OBSERVATION: n/a

RVR Mean 1 min: (Runway Visual Range)
A: P2000 - B: P2000 - C: P2000
RVR Mean 10 min:
A: P2000 - B: P2000 - C: P2000
WARNING: INVERSION WRNG VALID 160000/160630 TEMPERATURE AT SFC PS09C, AT 1000FT AGL PS20C
W25: 360-360(100-00kt) 00kt-01kt
W07: 070-110(100-02kt) 01kt-02kt
OTHER: n/a

QFE: (tats�chlicher Luftdruck) 1010.9 hPa = 29.82 inHg
QNH:(Luftdruck auf Meeresh�he) 1016.7 hPa = 30.00 inHg
Temperatur: 11.9 �C
Dew point(Taupunkt): 10.8 �C

METAR:  00386 SADL31 EDDG 160120 METAR EDDG 160120Z 00000KT CAVOK 12/11 Q1016 NOSIG= 
METAR (aus weather.noaa.gov):
2018/10/16 01:20 EDDG 160120Z 00000KT CAVOK 12/11 Q1016 NOSIG

TAF (aus weather.noaa.gov):
2018/10/15 18:27 TAF EDDG 151700Z 1518/1618 VRB02KT CAVOK BECMG 1601/1604 2500 BR PROB30 TEMPO 1604/1607 0700 FG BECMG 1606/1609 9999